Time;durP1;ratioP1;P1;durP2;ratioP2;P2;SDS_P1;SDS_P2;PMS_P1;PMS_P2;Temp;Humidity;BMP_temperature;BMP_pressure;BME280_temperature;BME280_humidity;BME280_pressure;Samples;Min_cycle;Max_cycle;Signal;HPM_P1;HPM_P2
2023/09/14 00:01:08;;;;;;;4.57;1.67;;;;;;;14.78;100.00;100624.59;5032093;28;20363;-71
2023/09/14 00:03:34;;;;;;;2.10;1.50;;;;;;;14.81;100.00;100633.00;5058503;28;20184;-71
2023/09/14 00:05:59;;;;;;;2.77;1.90;;;;;;;14.78;100.00;100627.19;5044727;28;20681;-71
2023/09/14 00:08:29;;;;;;;3.63;1.80;;;;;;;14.87;100.00;100633.53;5045368;28;20226;-71
2023/09/14 00:10:56;;;;;;;6.20;2.20;;;;;;;14.80;100.00;100630.53;5029445;28;20233;-70
2023/09/14 00:13:22;;;;;;;3.30;1.83;;;;;;;14.67;100.00;100620.09;5042493;28;20186;-70
2023/09/14 00:15:48;;;;;;;3.07;1.83;;;;;;;14.68;100.00;100622.59;5060034;28;20192;-71
2023/09/14 00:18:14;;;;;;;1.73;1.20;;;;;;;14.60;100.00;100629.16;5065882;28;20188;-71
2023/09/14 00:20:39;;;;;;;2.10;1.50;;;;;;;14.57;100.00;100625.00;5057255;28;20244;-71
2023/09/14 00:23:05;;;;;;;4.10;2.00;;;;;;;14.60;100.00;100624.81;5058792;28;20177;-71
2023/09/14 00:25:30;;;;;;;6.87;2.17;;;;;;;14.63;100.00;100627.19;5056454;28;20249;-71
2023/09/14 00:27:55;;;;;;;3.47;2.00;;;;;;;14.49;100.00;100625.47;5070054;28;20636;-71
2023/09/14 00:30:22;;;;;;;3.77;1.73;;;;;;;14.51;100.00;100618.47;5057035;28;20218;-71
2023/09/14 00:32:50;;;;;;;2.90;1.67;;;;;;;14.55;100.00;100618.25;5049585;28;20177;-70
2023/09/14 00:35:18;;;;;;;3.60;1.90;;;;;;;14.42;100.00;100619.03;5063002;28;20181;-70
2023/09/14 00:37:43;;;;;;;2.80;1.93;;;;;;;14.45;100.00;100628.34;5045385;28;20187;-71
2023/09/14 00:40:10;;;;;;;3.03;2.17;;;;;;;14.41;100.00;100630.31;5042087;28;20625;-71
2023/09/14 00:42:38;;;;;;;3.90;1.63;;;;;;;14.40;100.00;100627.81;5065294;28;20184;-70
2023/09/14 00:45:05;;;;;;;3.40;1.70;;;;;;;14.33;100.00;100627.38;5051622;28;20193;-70
2023/09/14 00:47:30;;;;;;;2.90;2.10;;;;;;;14.39;100.00;100626.16;5049921;28;20174;-71
2023/09/14 00:49:56;;;;;;;4.27;2.00;;;;;;;14.29;100.00;100621.56;5049975;28;20181;-71
2023/09/14 00:52:22;;;;;;;3.07;1.97;;;;;;;14.29;100.00;100612.94;5024549;28;20287;-71
2023/09/14 00:54:47;;;;;;;3.13;1.90;;;;;;;14.29;100.00;100620.72;5031888;28;20546;-70
2023/09/14 00:57:12;;;;;;;3.33;1.97;;;;;;;14.23;100.00;100621.09;5031053;28;20182;-70
2023/09/14 00:59:38;;;;;;;3.17;2.17;;;;;;;14.28;100.00;100619.88;5030604;28;20201;-71
2023/09/14 01:02:03;;;;;;;5.93;1.87;;;;;;;14.30;100.00;100617.19;5056445;28;20333;-70
2023/09/14 01:04:30;;;;;;;3.77;1.83;;;;;;;14.25;100.00;100614.91;5031936;28;20726;-71
2023/09/14 01:06:56;;;;;;;3.37;1.77;;;;;;;14.12;100.00;100624.34;5031925;28;20192;-71
2023/09/14 01:09:21;;;;;;;3.47;2.30;;;;;;;14.10;100.00;100621.03;5032203;28;20638;-70
2023/09/14 01:11:47;;;;;;;4.23;1.97;;;;;;;13.94;100.00;100615.94;5034141;28;20279;-70
2023/09/14 01:14:22;;;;;;;10.73;2.17;;;;;;;13.96;100.00;100619.28;5025128;28;20198;-70
2023/09/14 01:16:55;;;;;;;3.33;2.20;;;;;;;13.93;100.00;100614.28;5029334;28;20177;-70
2023/09/14 01:19:38;;;;;;;3.70;2.17;;;;;;;13.89;100.00;100621.38;5020749;28;20674;-70
2023/09/14 01:22:25;;;;;;;2.20;1.80;;;;;;;13.85;100.00;100618.19;5024074;28;20251;-70
2023/09/14 01:24:58;;;;;;;4.00;2.00;;;;;;;13.88;100.00;100624.91;5047859;28;20195;-70
2023/09/14 01:27:23;;;;;;;2.43;2.10;;;;;;;13.81;100.00;100627.03;5038691;28;20269;-70
2023/09/14 01:29:49;;;;;;;4.47;2.07;;;;;;;13.87;100.00;100623.25;5049508;28;20616;-70
2023/09/14 01:32:15;;;;;;;4.60;2.27;;;;;;;13.79;100.00;100623.72;5037620;28;20225;-70
2023/09/14 01:34:40;;;;;;;4.00;2.60;;;;;;;13.74;100.00;100625.72;5046373;28;20186;-70
2023/09/14 01:37:06;;;;;;;3.77;1.97;;;;;;;13.68;100.00;100626.09;5032828;28;20182;-70
2023/09/14 01:39:32;;;;;;;3.20;1.90;;;;;;;13.66;100.00;100626.19;5050363;28;20193;-71
2023/09/14 01:41:58;;;;;;;3.37;2.40;;;;;;;13.66;100.00;100625.38;5055185;28;20220;-71
2023/09/14 01:44:27;;;;;;;3.03;2.43;;;;;;;13.63;100.00;100633.28;5066769;28;20180;-71
2023/09/14 01:46:53;;;;;;;4.40;2.73;;;;;;;13.55;100.00;100634.56;5058882;28;20178;-71
2023/09/14 01:49:19;;;;;;;2.87;2.47;;;;;;;13.51;100.00;100638.25;5066153;28;20196;-71
2023/09/14 01:51:44;;;;;;;7.00;2.70;;;;;;;13.45;100.00;100635.22;5037393;28;20251;-72
2023/09/14 01:54:09;;;;;;;3.33;2.40;;;;;;;13.32;100.00;100633.31;5050240;28;20190;-71
2023/09/14 01:56:36;;;;;;;6.43;2.23;;;;;;;13.18;100.00;100636.66;5053103;28;20182;-71
2023/09/14 01:59:01;;;;;;;5.13;2.30;;;;;;;13.09;100.00;100634.59;5053863;28;20181;-71
2023/09/14 02:01:26;;;;;;;4.63;3.07;;;;;;;13.11;100.00;100634.50;5045547;28;20247;-71
2023/09/14 02:03:52;;;;;;;2.77;2.27;;;;;;;13.14;100.00;100639.53;5057636;28;20687;-71
2023/09/14 02:06:17;;;;;;;6.63;2.33;;;;;;;13.04;100.00;100631.47;5046420;28;20281;-72
2023/09/14 02:08:42;;;;;;;4.63;2.57;;;;;;;13.02;100.00;100636.72;5034381;28;20220;-71
2023/09/14 02:11:08;;;;;;;4.77;2.20;;;;;;;12.97;100.00;100638.69;5046113;28;20304;-71
2023/09/14 02:13:34;;;;;;;3.87;2.37;;;;;;;12.91;100.00;100634.72;5039017;28;20256;-71
2023/09/14 02:16:00;;;;;;;4.17;2.00;;;;;;;12.89;100.00;100631.38;5045366;28;20660;-71
2023/09/14 02:18:25;;;;;;;5.33;2.60;;;;;;;12.85;100.00;100639.38;5048435;28;20181;-71
2023/09/14 02:20:50;;;;;;;3.23;2.53;;;;;;;12.84;100.00;100646.31;5062508;28;20240;-71
2023/09/14 02:23:17;;;;;;;3.07;2.33;;;;;;;12.72;100.00;100642.63;5061871;28;20196;-71
2023/09/14 02:25:43;;;;;;;5.10;2.20;;;;;;;12.73;100.00;100639.16;5041685;28;20633;-71
2023/09/14 02:28:08;;;;;;;5.93;2.97;;;;;;;12.79;100.00;100643.16;5052000;28;20192;-71
2023/09/14 02:30:37;;;;;;;4.23;2.63;;;;;;;12.72;100.00;100634.06;5018802;28;20245;-73
2023/09/14 02:33:03;;;;;;;3.57;2.80;;;;;;;12.68;100.00;100643.72;5028734;28;20182;-72
2023/09/14 02:35:28;;;;;;;9.20;2.57;;;;;;;12.68;100.00;100640.34;5052223;28;20232;-72
2023/09/14 02:37:53;;;;;;;2.63;2.40;;;;;;;12.62;100.00;100644.06;5047157;28;20529;-72
2023/09/14 02:40:19;;;;;;;3.63;2.30;;;;;;;12.50;100.00;100647.31;5044826;28;20212;-72
2023/09/14 02:42:44;;;;;;;4.67;2.77;;;;;;;12.54;100.00;100646.22;5072051;28;20191;-71
2023/09/14 02:45:09;;;;;;;3.67;2.20;;;;;;;12.36;100.00;100650.63;5062348;28;20217;-71
2023/09/14 02:47:35;;;;;;;4.07;2.60;;;;;;;12.37;100.00;100647.97;5053720;28;20585;-71
2023/09/14 02:50:00;;;;;;;4.73;2.17;;;;;;;12.38;100.00;100648.81;5044348;28;20353;-71
2023/09/14 02:52:25;;;;;;;5.27;2.00;;;;;;;12.34;100.00;100657.63;5019355;28;20766;-71
2023/09/14 02:54:50;;;;;;;4.57;2.23;;;;;;;12.24;100.00;100659.84;5033232;28;20261;-71
2023/09/14 02:57:16;;;;;;;7.63;2.80;;;;;;;12.20;100.00;100661.75;5030920;28;20630;-71
2023/09/14 02:59:41;;;;;;;4.47;2.80;;;;;;;12.10;100.00;100665.72;5023372;28;20198;-71
2023/09/14 03:02:06;;;;;;;3.33;2.40;;;;;;;12.10;100.00;100660.56;5022686;28;20241;-71
2023/09/14 03:04:32;;;;;;;4.13;2.53;;;;;;;12.01;100.00;100664.47;5033197;28;20272;-71
2023/09/14 03:06:57;;;;;;;5.23;2.60;;;;;;;11.85;100.00;100672.13;5032010;28;20185;-71
2023/09/14 03:09:22;;;;;;;5.13;2.83;;;;;;;11.89;100.00;100667.63;5033393;28;20547;-71
2023/09/14 03:11:48;;;;;;;3.07;2.57;;;;;;;11.87;100.00;100669.44;5038813;28;20225;-71
2023/09/14 03:14:13;;;;;;;3.73;2.80;;;;;;;11.88;100.00;100671.13;5051840;28;20181;-71
2023/09/14 03:16:38;;;;;;;5.03;2.70;;;;;;;11.87;100.00;100666.88;5051472;28;20216;-71
2023/09/14 03:19:04;;;;;;;5.77;2.70;;;;;;;11.90;100.00;100674.47;5051800;28;20189;-70
2023/09/14 03:21:29;;;;;;;4.20;2.73;;;;;;;11.88;100.00;100668.53;5030688;28;20272;-71
2023/09/14 03:23:56;;;;;;;6.70;2.70;;;;;;;11.84;100.00;100672.19;5022511;28;20240;-71
2023/09/14 03:26:27;;;;;;;2.93;2.67;;;;;;;11.84;100.00;100674.78;5022453;28;20183;-71
2023/09/14 03:28:52;;;;;;;4.40;2.57;;;;;;;11.84;100.00;100674.78;5033105;28;20173;-70
2023/09/14 03:31:18;;;;;;;5.07;2.90;;;;;;;11.76;100.00;100676.00;4997097;28;20260;-70
2023/09/14 03:33:46;;;;;;;4.73;2.57;;;;;;;11.73;100.00;100681.31;5025758;28;20212;-70
2023/09/14 03:36:11;;;;;;;6.33;3.53;;;;;;;11.73;100.00;100681.31;5033082;28;20252;-70
2023/09/14 03:38:37;;;;;;;5.63;2.70;;;;;;;11.63;100.00;100677.50;5028462;28;20661;-70
2023/09/14 03:41:02;;;;;;;4.57;2.90;;;;;;;11.61;100.00;100679.34;5031821;28;20303;-70
2023/09/14 03:43:28;;;;;;;6.03;3.37;;;;;;;11.62;100.00;100687.00;5059813;28;20181;-71
2023/09/14 03:45:53;;;;;;;4.67;2.87;;;;;;;11.57;100.00;100690.69;5052263;28;20220;-71
2023/09/14 03:48:18;;;;;;;3.70;2.80;;;;;;;11.55;100.00;100688.19;5051469;28;20276;-71
2023/09/14 03:50:44;;;;;;;5.90;2.83;;;;;;;11.57;100.00;100690.69;5046911;28;20233;-70
2023/09/14 03:53:10;;;;;;;4.00;2.97;;;;;;;11.54;100.00;100693.44;5061479;28;20539;-71
2023/09/14 03:55:35;;;;;;;4.83;2.90;;;;;;;11.55;100.00;100683.06;5049840;28;20615;-71
2023/09/14 03:58:00;;;;;;;4.20;3.07;;;;;;;11.52;100.00;100682.38;5050293;28;20264;-71
2023/09/14 04:00:26;;;;;;;3.73;2.80;;;;;;;11.51;100.00;100684.13;5044322;28;20323;-71
2023/09/14 04:02:51;;;;;;;6.60;2.90;;;;;;;11.49;100.00;100685.94;5052521;28;20584;-71
2023/09/14 04:05:17;;;;;;;5.03;2.90;;;;;;;11.44;100.00;100681.00;5049895;28;20271;-70
2023/09/14 04:07:44;;;;;;;5.67;3.20;;;;;;;11.48;100.00;100683.44;5051421;28;20189;-71
2023/09/14 04:10:10;;;;;;;9.43;3.90;;;;;;;11.51;100.00;100691.00;5041176;28;20643;-71
2023/09/14 04:12:42;;;;;;;7.30;3.20;;;;;;;11.42;100.00;100689.72;5049228;28;20675;-70
2023/09/14 04:15:08;;;;;;;5.20;3.33;;;;;;;11.46;100.00;100688.63;5050649;28;20182;-70
2023/09/14 04:17:34;;;;;;;4.20;3.47;;;;;;;11.49;100.00;100692.84;5067191;28;20181;-70
2023/09/14 04:20:01;;;;;;;4.83;3.60;;;;;;;11.46;100.00;100686.06;5048934;28;20198;-71
2023/09/14 04:22:26;;;;;;;7.33;3.60;;;;;;;11.38;100.00;100693.34;5060149;28;20235;-71
2023/09/14 04:24:52;;;;;;;9.60;3.53;;;;;;;11.33;100.00;100695.31;5066168;28;20186;-70
2023/09/14 04:27:17;;;;;;;4.20;3.27;;;;;;;11.37;100.00;100699.41;5059936;28;20229;-70
2023/09/14 04:29:43;;;;;;;3.83;2.80;;;;;;;11.36;100.00;100697.72;5053637;28;20575;-70
2023/09/14 04:32:08;;;;;;;4.27;3.17;;;;;;;11.33;100.00;100700.47;5047913;28;20249;-70
2023/09/14 04:34:34;;;;;;;6.53;3.17;;;;;;;11.30;100.00;100699.69;5057727;28;20255;-71
2023/09/14 04:36:59;;;;;;;4.00;3.00;;;;;;;11.34;100.00;100704.69;5052071;28;20214;-71
2023/09/14 04:39:24;;;;;;;4.13;3.10;;;;;;;11.24;100.00;100710.28;5051648;28;20189;-70
2023/09/14 04:41:49;;;;;;;4.87;3.10;;;;;;;11.26;100.00;100707.63;5048138;28;20225;-70
2023/09/14 04:44:15;;;;;;;3.87;3.30;;;;;;;11.25;100.00;100709.38;5037108;28;20185;-71
2023/09/14 04:46:40;;;;;;;4.47;2.70;;;;;;;11.25;100.00;100716.25;5030416;28;20617;-71
2023/09/14 04:49:06;;;;;;;12.07;2.93;;;;;;;11.16;100.00;100714.13;5045797;28;20177;-70
2023/09/14 04:51:31;;;;;;;4.03;2.70;;;;;;;11.14;100.00;100711.66;5040478;28;20256;-71
2023/09/14 04:53:56;;;;;;;3.53;2.90;;;;;;;11.21;100.00;100719.91;5029303;28;20190;-70
2023/09/14 04:56:22;;;;;;;9.00;3.63;;;;;;;11.08;100.00;100724.81;5031956;28;20261;-70
2023/09/14 04:58:47;;;;;;;4.73;3.43;;;;;;;11.11;100.00;100725.50;5031513;28;20174;-71
2023/09/14 05:01:12;;;;;;;5.17;2.80;;;;;;;11.09;100.00;100719.56;5023719;28;20228;-71
2023/09/14 05:03:39;;;;;;;6.47;3.20;;;;;;;11.10;100.00;100721.25;5028284;28;20204;-71
2023/09/14 05:06:05;;;;;;;7.67;3.13;;;;;;;11.05;100.00;100728.38;5031961;28;20213;-71
2023/09/14 05:08:30;;;;;;;6.43;3.03;;;;;;;11.17;100.00;100723.53;5030799;28;20589;-71
2023/09/14 05:10:56;;;;;;;4.23;2.87;;;;;;;11.09;100.00;100721.34;5023706;28;20225;-71
2023/09/14 05:13:22;;;;;;;2.80;2.60;;;;;;;11.01;100.00;100726.00;5039153;28;20182;-71
2023/09/14 05:15:48;;;;;;;5.30;3.23;;;;;;;11.23;100.00;100725.81;5030058;28;20174;-71
2023/09/14 05:18:13;;;;;;;6.93;3.40;;;;;;;11.22;100.00;100726.72;5031326;28;20189;-71
2023/09/14 05:20:43;;;;;;;6.97;2.63;;;;;;;11.24;100.00;100735.22;5028534;28;20323;-71
2023/09/14 05:23:08;;;;;;;6.17;2.57;;;;;;;11.24;100.00;100725.75;5038849;28;20182;-71
2023/09/14 05:25:33;;;;;;;10.87;3.57;;;;;;;11.24;100.00;100728.31;5030118;28;20191;-70
2023/09/14 05:27:58;;;;;;;5.53;3.07;;;;;;;11.28;100.00;100729.00;5029703;28;20214;-70
2023/09/14 05:30:24;;;;;;;5.87;3.20;;;;;;;11.30;100.00;100730.59;5031179;28;20233;-71
2023/09/14 05:32:50;;;;;;;6.80;3.07;;;;;;;11.36;100.00;100732.06;5052923;28;20181;-72
2023/09/14 05:35:16;;;;;;;5.27;2.97;;;;;;;11.30;100.00;100728.03;5054068;28;20212;-71
2023/09/14 05:37:41;;;;;;;6.00;3.20;;;;;;;11.30;100.00;100727.22;5069715;28;20177;-71
2023/09/14 05:40:11;;;;;;;6.07;3.33;;;;;;;11.45;100.00;100721.31;5044230;28;20196;-71
2023/09/14 05:42:41;;;;;;;5.60;3.30;;;;;;;11.57;100.00;100726.78;5055023;28;20573;-71
2023/09/14 05:45:09;;;;;;;6.13;3.00;;;;;;;11.56;100.00;100733.69;5053431;28;20545;-71
2023/09/14 05:47:35;;;;;;;6.57;3.20;;;;;;;11.68;100.00;100732.22;5053390;28;20272;-71
2023/09/14 05:50:00;;;;;;;4.03;2.93;;;;;;;11.70;100.00;100742.47;5054532;28;20199;-71
2023/09/14 05:52:26;;;;;;;5.57;3.07;;;;;;;11.83;100.00;100734.97;5042810;28;20221;-71
2023/09/14 05:54:51;;;;;;;5.23;2.93;;;;;;;11.92;100.00;100729.34;5054290;28;20240;-71
2023/09/14 05:57:17;;;;;;;3.67;3.00;;;;;;;12.02;100.00;100740.91;5052315;28;20174;-70
2023/09/14 05:59:42;;;;;;;4.73;2.90;;;;;;;12.11;100.00;100737.03;5053691;28;20281;-71
2023/09/14 06:02:08;;;;;;;6.07;2.97;;;;;;;12.13;100.00;100734.38;5072700;28;20216;-71
2023/09/14 06:04:34;;;;;;;6.80;3.10;;;;;;;12.31;100.00;100735.19;5042793;28;20330;-70
2023/09/14 06:06:59;;;;;;;9.20;3.20;;;;;;;12.38;100.00;100733.97;5054075;28;20189;-72
2023/09/14 06:09:26;;;;;;;10.00;2.97;;;;;;;12.38;100.00;100733.97;5054176;28;20656;-71
2023/09/14 06:11:52;;;;;;;3.40;3.10;;;;;;;12.59;100.00;100737.97;5041920;28;20209;-72
2023/09/14 06:14:17;;;;;;;5.53;3.30;;;;;;;12.67;100.00;100741.91;5053885;28;20268;-71
2023/09/14 06:16:42;;;;;;;6.53;2.87;;;;;;;12.65;100.00;100742.00;5051994;28;20174;-71
2023/09/14 06:19:07;;;;;;;3.27;2.90;;;;;;;12.87;100.00;100735.66;5052623;28;20558;-71
2023/09/14 06:21:34;;;;;;;5.67;2.93;;;;;;;13.00;100.00;100741.84;5044292;28;20236;-71
2023/09/14 06:23:59;;;;;;;4.93;3.27;;;;;;;13.02;100.00;100737.44;5072865;28;20226;-72
2023/09/14 06:26:27;;;;;;;5.67;3.33;;;;;;;13.10;100.00;100733.56;5068752;28;20596;-71
2023/09/14 06:28:53;;;;;;;7.90;3.40;;;;;;;13.28;100.00;100744.66;5052449;28;20170;-71
2023/09/14 06:31:18;;;;;;;7.53;3.47;;;;;;;13.38;100.00;100743.25;5035193;28;20221;-71
2023/09/14 06:33:44;;;;;;;5.23;3.07;;;;;;;13.54;100.00;100744.06;5029601;28;20187;-72
2023/09/14 06:36:09;;;;;;;4.03;2.77;;;;;;;13.70;100.00;100738.81;5031671;28;20633;-73
2023/09/14 06:38:34;;;;;;;6.50;3.03;;;;;;;14.14;100.00;100737.16;5037975;28;20179;-72
2023/09/14 06:40:59;;;;;;;4.23;2.80;;;;;;;14.78;100.00;100736.78;5036025;28;20300;-73
2023/09/14 06:43:25;;;;;;;5.07;2.70;;;;;;;15.84;100.00;100732.69;5030846;28;20523;-71
2023/09/14 06:45:51;;;;;;;4.57;2.40;;;;;;;16.73;100.00;100729.22;5032083;28;20688;-71
2023/09/14 06:48:16;;;;;;;3.77;2.30;;;;;;;18.51;100.00;100731.75;5033996;28;20196;-71
2023/09/14 06:50:42;;;;;;;5.13;2.57;;;;;;;20.08;100.00;100733.09;5028303;28;20225;-71
2023/09/14 06:53:08;;;;;;;3.30;2.20;;;;;;;21.59;100.00;100736.53;5032155;28;20170;-71
2023/09/14 06:55:37;;;;;;;3.00;1.90;;;;;;;22.49;95.77;100739.59;5032199;28;20189;-70
2023/09/14 06:58:02;;;;;;;3.40;1.90;;;;;;;23.29;87.57;100735.47;5032098;28;20174;-71
2023/09/14 07:00:28;;;;;;;4.10;2.47;;;;;;;23.76;77.93;100739.59;5028712;28;20684;-70
2023/09/14 07:02:53;;;;;;;3.88;1.90;;;;;;;24.28;73.61;100741.38;5065353;28;20181;-71
2023/09/14 07:05:18;;;;;;;3.47;2.15;;;;;;;24.03;76.22;100751.78;5037963;28;20200;-70
2023/09/14 07:07:43;;;;;;;5.00;2.17;;;;;;;23.76;77.02;100745.66;5042299;28;20184;-70
2023/09/14 07:10:09;;;;;;;6.18;2.53;;;;;;;23.11;77.50;100752.03;5041880;28;20641;-70
2023/09/14 07:12:35;;;;;;;5.90;2.50;;;;;;;24.49;74.91;100746.22;5047529;28;20204;-72
2023/09/14 07:15:00;;;;;;;5.97;2.63;;;;;;;26.64;54.17;100756.63;5033175;28;20217;-70
2023/09/14 07:17:26;;;;;;;5.78;2.53;;;;;;;26.20;52.13;100753.53;5034026;28;20193;-70
2023/09/14 07:19:51;;;;;;;6.03;2.80;;;;;;;26.87;51.15;100759.31;5034096;28;20300;-70
2023/09/14 07:22:18;;;;;;;4.72;2.35;;;;;;;26.08;51.56;100763.59;5021367;28;20236;-70
2023/09/14 07:24:43;;;;;;;3.35;2.28;;;;;;;26.70;51.51;100762.00;5030748;28;20583;-69
2023/09/14 07:27:08;;;;;;;5.35;2.53;;;;;;;27.45;50.05;100765.00;5032931;28;20272;-70
2023/09/14 07:29:34;;;;;;;5.68;3.20;;;;;;;27.25;46.47;100769.09;5031575;28;20189;-70
2023/09/14 07:31:59;;;;;;;8.63;3.08;;;;;;;25.25;57.20;100768.09;5024608;28;20251;-70
2023/09/14 07:34:25;;;;;;;4.97;2.58;;;;;;;24.88;57.49;100773.81;5048878;28;20264;-70
2023/09/14 07:36:50;;;;;;;6.90;3.15;;;;;;;24.78;58.27;100761.63;5052962;28;20283;-70
2023/09/14 07:39:15;;;;;;;5.28;2.80;;;;;;;23.23;72.03;100768.38;5051030;28;20552;-70
2023/09/14 07:41:41;;;;;;;4.38;2.50;;;;;;;24.07;67.51;100762.81;5046710;28;20288;-70
2023/09/14 07:44:07;;;;;;;7.30;3.17;;;;;;;24.40;61.84;100765.56;5049955;28;20182;-69
2023/09/14 07:46:33;;;;;;;5.75;2.85;;;;;;;24.13;64.67;100767.44;5051236;28;20238;-69
2023/09/14 07:48:58;;;;;;;7.15;3.10;;;;;;;24.29;62.24;100774.56;5051082;28;20625;-68
2023/09/14 07:51:23;;;;;;;6.93;2.88;;;;;;;24.98;58.68;100764.78;5032748;28;20811;-70
2023/09/14 07:53:49;;;;;;;7.50;3.15;;;;;;;25.43;53.96;100772.44;5029521;28;20236;-69
2023/09/14 07:56:14;;;;;;;8.25;3.13;;;;;;;24.61;59.69;100776.50;5021303;28;20261;-72
2023/09/14 07:58:39;;;;;;;6.93;2.83;;;;;;;22.45;77.35;100782.81;5031022;28;20186;-70
2023/09/14 08:01:04;;;;;;;4.95;2.53;;;;;;;23.74;72.41;100779.16;5005100;28;20712;-69
2023/09/14 08:03:30;;;;;;;7.57;3.25;;;;;;;24.06;62.26;100780.34;5041509;28;20182;-69
2023/09/14 08:05:57;;;;;;;5.57;2.60;;;;;;;23.68;64.57;100779.78;5031674;28;20248;-69
2023/09/14 08:08:22;;;;;;;5.20;2.78;;;;;;;23.33;66.08;100789.31;5032101;28;20190;-68
2023/09/14 08:10:49;;;;;;;4.43;2.63;;;;;;;22.47;75.51;100786.09;5022075;28;20308;-69
2023/09/14 08:13:14;;;;;;;4.03;2.50;;;;;;;21.35;85.60;100779.66;5021675;28;20312;-69
2023/09/14 08:15:40;;;;;;;5.25;2.70;;;;;;;20.92;90.41;100775.59;5032306;28;20182;-70
2023/09/14 08:18:06;;;;;;;11.50;3.00;;;;;;;20.38;95.02;100782.81;5029518;28;20223;-70
2023/09/14 08:20:31;;;;;;;7.60;2.60;;;;;;;20.89;92.71;100776.72;5028625;28;20264;-69
2023/09/14 08:22:56;;;;;;;7.30;3.00;;;;;;;22.06;84.67;100783.72;5063163;28;20625;-69
2023/09/14 08:25:22;;;;;;;4.30;2.80;;;;;;;20.99;90.15;100781.97;5056537;28;20181;-69
2023/09/14 08:27:47;;;;;;;5.50;2.90;;;;;;;20.32;96.63;100792.84;5071390;28;20184;-70
2023/09/14 08:30:12;;;;;;;7.57;3.03;;;;;;;20.85;95.12;100783.19;5060148;28;20208;-69
2023/09/14 08:32:38;;;;;;;7.80;2.83;;;;;;;20.94;97.46;100786.78;5050066;28;20188;-69
2023/09/14 08:35:24;;;;;;;5.20;2.70;;;;;;;21.63;87.25;100789.44;5040293;28;20201;-69
2023/09/14 08:37:52;;;;;;;10.30;3.43;;;;;;;22.25;87.71;100793.31;5055670;28;20192;-70
2023/09/14 08:40:18;;;;;;;4.18;2.60;;;;;;;23.16;78.95;100798.84;5056250;28;20189;-70
2023/09/14 08:42:54;;;;;;;7.35;2.92;;;;;;;23.65;73.49;100782.69;5033590;28;20187;-69
2023/09/14 08:45:27;;;;;;;5.22;2.30;;;;;;;21.14;87.98;100787.63;5051430;28;20230;-69
2023/09/14 08:47:54;;;;;;;4.30;2.65;;;;;;;21.67;85.52;100785.56;5048791;28;20178;-70
2023/09/14 08:50:29;;;;;;;6.05;2.55;;;;;;;21.57;86.28;100786.44;5039499;28;20185;-71
2023/09/14 08:52:54;;;;;;;4.65;2.60;;;;;;;20.59;88.83;100785.38;5004924;28;20188;-71
2023/09/14 08:55:22;;;;;;;5.97;2.70;;;;;;;19.59;97.10;100779.72;5031734;28;20189;-72
2023/09/14 08:57:51;;;;;;;5.80;2.50;;;;;;;20.63;90.55;100784.19;5037353;28;20548;-70
2023/09/14 09:00:18;;;;;;;6.73;2.43;;;;;;;21.74;81.06;100781.44;5042988;28;20254;-68
2023/09/14 09:02:45;;;;;;;4.60;2.40;;;;;;;24.21;60.55;100782.41;5047351;28;20173;-69
2023/09/14 09:05:12;;;;;;;7.45;2.30;;;;;;;24.84;52.18;100789.09;5071757;28;20227;-70
2023/09/14 09:07:40;;;;;;;5.60;2.03;;;;;;;26.64;45.56;100785.63;5062483;28;20184;-69
2023/09/14 09:10:19;;;;;;;4.53;2.33;;;;;;;27.26;42.49;100784.75;5061766;28;20184;-70
2023/09/14 09:12:46;;;;;;;5.78;2.60;;;;;;;27.64;41.00;100787.44;5053758;28;20596;-72
2023/09/14 09:15:13;;;;;;;6.50;2.80;;;;;;;29.55;38.02;100789.31;5070595;28;20176;-70
2023/09/14 09:17:39;;;;;;;4.75;2.45;;;;;;;27.66;40.97;100790.75;5062685;28;20248;-70
2023/09/14 09:20:24;;;;;;;5.18;2.53;;;;;;;26.45;43.26;100797.44;5057331;28;20214;-69
2023/09/14 09:22:51;;;;;;;5.22;2.65;;;;;;;26.49;43.75;100782.91;5051872;28;20197;-70
2023/09/14 09:25:21;;;;;;;6.22;2.60;;;;;;;26.17;46.11;100782.88;5072842;28;20230;-70
2023/09/14 09:27:46;;;;;;;4.40;2.40;;;;;;;26.60;43.66;100779.88;5058489;28;20177;-70
2023/09/14 09:30:13;;;;;;;6.07;2.40;;;;;;;27.55;43.72;100780.63;5051830;28;20244;-70
2023/09/14 09:32:42;;;;;;;4.82;2.33;;;;;;;26.09;44.28;100783.69;5052348;28;20268;-70
2023/09/14 09:35:25;;;;;;;6.63;2.17;;;;;;;25.47;46.71;100783.47;5028853;28;20731;-69
2023/09/14 09:37:52;;;;;;;5.20;2.33;;;;;;;25.36;44.55;100777.47;5039354;28;20186;-70
2023/09/14 09:40:19;;;;;;;5.75;2.20;;;;;;;25.01;44.48;100787.31;5044863;28;20223;-69
2023/09/14 09:42:45;;;;;;;4.70;2.00;;;;;;;25.98;42.15;100777.94;5048586;28;20186;-71
2023/09/14 09:45:11;;;;;;;3.72;2.00;;;;;;;25.68;42.20;100781.13;5035269;28;20205;-70
2023/09/14 09:47:37;;;;;;;2.88;2.17;;;;;;;25.42;42.76;100774.22;5037247;28;20178;-71
2023/09/14 09:50:06;;;;;;;7.07;2.20;;;;;;;24.33;45.11;100770.63;5043953;28;20178;-71
2023/09/14 09:52:33;;;;;;;4.30;2.00;;;;;;;24.27;50.10;100774.72;5064802;28;20204;-69
2023/09/14 09:54:58;;;;;;;3.45;2.05;;;;;;;25.29;46.05;100771.22;5035645;28;20368;-70
2023/09/14 09:57:28;;;;;;;3.65;1.85;;;;;;;24.43;46.27;100770.53;5039114;28;20272;-69
2023/09/14 09:59:55;;;;;;;7.05;1.90;;;;;;;24.87;43.70;100770.38;5042168;28;20569;-70
2023/09/14 10:02:31;;;;;;;4.43;2.10;;;;;;;25.42;43.28;100753.16;5024092;28;20225;-69
2023/09/14 10:04:57;;;;;;;4.85;2.15;;;;;;;25.35;44.54;100754.75;5043086;28;20202;-70
2023/09/14 10:07:22;;;;;;;2.45;1.73;;;;;;;24.98;46.08;100751.63;5053446;28;20181;-70
2023/09/14 10:09:51;;;;;;;3.53;2.10;;;;;;;24.56;46.14;100749.88;5042444;28;20182;-70
2023/09/14 10:12:17;;;;;;;2.83;1.60;;;;;;;25.57;42.80;100750.66;5044119;28;20262;-70
2023/09/14 10:14:43;;;;;;;4.45;2.00;;;;;;;24.01;42.58;100758.97;5053896;28;20174;-68
2023/09/14 10:17:13;;;;;;;2.67;1.30;;;;;;;24.92;41.64;100749.66;5036961;28;20549;-69
2023/09/14 10:19:39;;;;;;;1.70;1.30;;;;;;;24.66;42.61;100752.41;5047921;28;20212;-70
2023/09/14 10:22:06;;;;;;;1.85;1.42;;;;;;;25.19;41.90;100749.50;5024587;28;20755;-69
2023/09/14 10:24:32;;;;;;;2.15;1.23;;;;;;;25.56;42.17;100740.31;5033989;28;20186;-70
2023/09/14 10:26:58;;;;;;;5.32;2.00;;;;;;;25.23;42.92;100742.91;5034078;28;20228;-69
2023/09/14 10:29:26;;;;;;;2.25;1.63;;;;;;;23.27;47.27;100740.88;5030836;28;20703;-70
2023/09/14 10:31:54;;;;;;;3.05;1.33;;;;;;;21.76;53.68;100741.06;5051732;28;20281;-70
2023/09/14 10:34:21;;;;;;;1.20;1.02;;;;;;;21.11;57.59;100746.03;5052318;28;20200;-71
2023/09/14 10:36:47;;;;;;;1.83;1.08;;;;;;;20.56;59.00;100734.22;5052772;28;20181;-70
2023/09/14 10:39:16;;;;;;;1.98;1.40;;;;;;;20.23;65.32;100736.19;5053588;28;20251;-70
2023/09/14 10:41:42;;;;;;;1.50;1.37;;;;;;;20.31;69.82;100735.50;5047295;28;20296;-70
2023/09/14 10:44:07;;;;;;;2.33;1.30;;;;;;;19.96;66.64;100726.28;5047549;28;20570;-70
2023/09/14 10:46:37;;;;;;;1.53;1.20;;;;;;;19.97;69.33;100722.69;5053927;28;20177;-70
2023/09/14 10:49:03;;;;;;;1.43;1.33;;;;;;;19.66;75.35;100730.50;5053583;28;20532;-70
2023/09/14 10:51:28;;;;;;;3.37;1.80;;;;;;;19.81;79.76;100731.00;5044912;28;20235;-70
2023/09/14 10:53:54;;;;;;;4.43;1.90;;;;;;;19.94;84.12;100723.78;5051449;28;20656;-71
2023/09/14 10:56:30;;;;;;;4.67;2.27;;;;;;;20.20;83.66;100720.75;5053227;28;20173;-71
2023/09/14 10:58:56;;;;;;;2.47;1.90;;;;;;;19.97;88.27;100717.47;5050800;28;20204;-71
2023/09/14 11:01:25;;;;;;;3.87;1.83;;;;;;;19.67;87.09;100711.25;5054055;28;20748;-71
2023/09/14 11:04:08;;;;;;;5.47;1.70;;;;;;;19.83;85.94;100708.19;5046606;28;20177;-71
2023/09/14 11:06:47;;;;;;;3.07;1.73;;;;;;;20.35;82.35;100702.94;5051680;28;20181;-71
2023/09/14 11:09:14;;;;;;;5.00;2.00;;;;;;;20.01;85.59;100711.06;5051488;28;20174;-70
2023/09/14 11:11:43;;;;;;;3.57;2.00;;;;;;;20.15;85.23;100697.63;5029865;28;20233;-70
2023/09/14 11:14:10;;;;;;;4.93;2.33;;;;;;;20.40;85.81;100695.50;5065531;28;20191;-70
2023/09/14 11:16:42;;;;;;;3.97;2.00;;;;;;;20.93;82.15;100694.41;5050979;28;20181;-70